createdAt,value
2023-03-26T05:23:34.857Z,41
2023-03-26T05:28:37.190Z,41
2023-03-26T05:33:39.360Z,42
2023-03-26T05:38:41.567Z,43
2023-03-26T05:43:43.702Z,43
2023-03-26T05:48:49.064Z,43
2023-03-26T05:53:52.844Z,43
2023-03-26T05:58:54.981Z,43
2023-03-26T06:03:57.355Z,42
2023-03-26T06:09:01.256Z,41
2023-03-26T06:14:03.141Z,40
2023-03-26T06:19:05.310Z,39
2023-03-26T06:24:08.403Z,38
2023-03-26T06:29:10.507Z,38
2023-03-26T06:34:13.524Z,37
2023-03-26T06:39:15.703Z,37
2023-03-26T06:44:19.595Z,37
2023-03-26T06:49:21.656Z,37
2023-03-26T06:54:24.950Z,37
2023-03-26T06:59:27.737Z,37
2023-03-26T07:04:31.416Z,37
2023-03-26T07:09:33.810Z,37
2023-03-26T07:14:36.206Z,37
2023-03-26T07:19:42.779Z,37
2023-03-26T07:24:45.121Z,37
2023-03-26T07:29:47.196Z,37
2023-03-26T07:34:51.022Z,37
2023-03-26T07:39:53.941Z,37
2023-03-26T07:44:56.200Z,38
2023-03-26T07:49:58.262Z,38
2023-03-26T07:55:00.427Z,38
2023-03-26T08:00:08.792Z,38
2023-03-26T08:05:11.103Z,38
2023-03-26T08:10:16.498Z,38
2023-03-26T08:15:21.803Z,38
2023-03-26T08:20:23.919Z,39
2023-03-26T08:25:26.066Z,39
2023-03-26T08:30:30.491Z,39
2023-03-26T08:35:32.652Z,39
2023-03-26T08:40:34.881Z,39
2023-03-26T08:45:37.986Z,39
2023-03-26T08:50:40.970Z,40
2023-03-26T08:55:44.791Z,40
2023-03-26T09:00:47.012Z,40
2023-03-26T09:05:49.892Z,40
2023-03-26T09:10:52.097Z,40
2023-03-26T09:15:54.227Z,39
2023-03-26T09:20:57.978Z,39
2023-03-26T09:26:01.708Z,38
2023-03-26T09:31:03.763Z,38
2023-03-26T09:36:05.908Z,38
2023-03-26T09:41:12.100Z,38
2023-03-26T09:46:14.237Z,38
2023-03-26T09:51:17.092Z,38
2023-03-26T09:56:19.276Z,38
2023-03-26T10:01:21.387Z,38
2023-03-26T10:06:23.695Z,38
2023-03-26T10:11:28.948Z,39
2023-03-26T10:16:31.828Z,39
2023-03-26T10:21:34.763Z,40
2023-03-26T10:26:37.874Z,41
2023-03-26T10:31:39.940Z,41
2023-03-26T10:36:45.172Z,42
2023-03-26T10:41:47.331Z,42
2023-03-26T10:46:50.218Z,43
2023-03-26T10:51:53.911Z,44
2023-03-26T10:56:56.283Z,44
2023-03-26T11:01:59.125Z,45
2023-03-26T11:07:01.800Z,46
2023-03-26T11:12:03.556Z,46
2023-03-26T11:17:05.601Z,47
2023-03-26T11:22:08.691Z,47
2023-03-26T11:27:14.714Z,46
2023-03-26T11:32:16.759Z,46
2023-03-26T11:37:23.513Z,46
2023-03-26T11:42:25.778Z,46
2023-03-26T11:47:29.342Z,47
2023-03-26T11:52:31.468Z,47
2023-03-26T11:57:33.805Z,47
2023-03-26T12:02:36.122Z,47
2023-03-26T12:07:38.172Z,47
2023-03-26T12:12:41.084Z,47
2023-03-26T12:17:45.561Z,47
2023-03-26T12:22:47.917Z,46
2023-03-26T12:27:49.974Z,46
2023-03-26T12:32:53.197Z,46
2023-03-26T12:37:57.216Z,46
2023-03-26T12:44:45.780Z,47
2023-03-26T12:48:04.129Z,47
2023-03-26T12:53:05.380Z,48
2023-03-26T12:58:13.461Z,49
2023-03-26T13:03:11.322Z,49
2023-03-26T13:08:13.414Z,49
2023-03-26T13:13:16.324Z,48
2023-03-26T13:18:18.495Z,48
2023-03-26T13:23:20.773Z,48
2023-03-26T13:28:22.864Z,48
2023-03-26T13:33:31.187Z,47
2023-03-26T13:38:38.313Z,47
2023-03-26T13:43:40.412Z,47
2023-03-26T13:48:43.424Z,47
2023-03-26T13:53:47.165Z,47
2023-03-26T13:58:50.920Z,47
2023-03-26T14:03:53.795Z,47
2023-03-26T14:08:57.376Z,46
2023-03-26T14:13:59.640Z,46
2023-03-26T14:19:02.677Z,46
2023-03-26T14:24:05.558Z,45
2023-03-26T14:29:08.469Z,45
2023-03-26T14:34:10.577Z,45
2023-03-26T14:39:17.510Z,44
2023-03-26T14:44:20.492Z,44
2023-03-26T14:49:23.506Z,43
2023-03-26T14:54:25.606Z,43
2023-03-26T14:59:27.928Z,42
2023-03-26T15:04:30.807Z,42
2023-03-26T15:09:33.833Z,42
2023-03-26T15:14:40.606Z,42
2023-03-26T15:19:43.472Z,41
2023-03-26T15:24:45.632Z,41
2023-03-26T15:29:50.038Z,42
2023-03-26T15:34:52.167Z,43
2023-03-26T15:39:58.902Z,44
2023-03-26T15:44:56.564Z,44
2023-03-26T15:49:58.685Z,44
2023-03-26T15:55:04.394Z,44
2023-03-26T16:00:11.302Z,43
2023-03-26T16:05:13.402Z,43
2023-03-26T16:10:17.059Z,42
2023-03-26T16:15:19.217Z,42
2023-03-26T16:20:22.228Z,41
2023-03-26T16:25:27.552Z,41
2023-03-26T16:30:27.436Z,41
2023-03-26T16:35:29.538Z,41
2023-03-26T16:40:31.875Z,41
2023-03-26T16:45:34.205Z,41
2023-03-26T16:50:41.336Z,41
2023-03-26T16:55:45.134Z,41
2023-03-26T17:00:47.254Z,42
2023-03-26T17:05:50.814Z,42
2023-03-26T17:10:53.096Z,42
2023-03-26T17:15:55.278Z,42
2023-03-26T17:20:57.482Z,42
2023-03-26T17:25:59.508Z,42
2023-03-26T17:31:02.599Z,43
2023-03-26T17:36:09.695Z,43
2023-03-26T17:41:12.580Z,43
2023-03-26T17:46:16.266Z,43
2023-03-26T17:51:18.377Z,43
2023-03-26T17:56:20.532Z,43
2023-03-26T18:01:22.914Z,43
2023-03-26T18:06:25.063Z,43
2023-03-26T18:11:27.200Z,42
2023-03-26T18:16:30.118Z,42
2023-03-26T18:21:32.982Z,42
2023-03-26T18:26:36.023Z,42
2023-03-26T18:31:38.901Z,42
2023-03-26T18:36:41.129Z,42
2023-03-26T18:41:43.206Z,42
2023-03-26T18:46:45.362Z,42
2023-03-26T18:51:56.477Z,42
2023-03-26T18:56:51.345Z,42
2023-03-26T19:01:53.503Z,42
2023-03-26T19:06:55.840Z,42
2023-03-26T19:11:57.917Z,42
2023-03-26T19:17:01.335Z,42
2023-03-26T19:22:03.210Z,41
2023-03-26T19:27:05.356Z,41
2023-03-26T19:32:08.461Z,41
2023-03-26T19:37:16.616Z,41
2023-03-26T19:42:19.711Z,41
2023-03-26T19:47:24.966Z,41
2023-03-26T19:52:24.087Z,41
2023-03-26T19:57:27.758Z,41
2023-03-26T20:02:30.072Z,41
2023-03-26T20:07:35.150Z,40
2023-03-26T20:12:38.874Z,40
2023-03-26T20:17:42.616Z,40
2023-03-26T20:22:45.403Z,40
2023-03-26T20:27:47.699Z,41
2023-03-26T20:32:50.586Z,41
2023-03-26T20:37:52.867Z,41
2023-03-26T20:42:55.918Z,41
2023-03-26T20:47:58.879Z,41
2023-03-26T20:53:00.969Z,41
2023-03-26T20:58:03.574Z,41
2023-03-26T21:03:06.247Z,41
2023-03-26T21:08:08.318Z,41
2023-03-26T21:13:11.404Z,41
2023-03-26T21:18:15.861Z,41
2023-03-26T21:23:17.886Z,41
2023-03-26T21:28:22.160Z,41
2023-03-26T21:33:23.131Z,41
2023-03-26T21:38:26.083Z,41
2023-03-26T21:43:28.208Z,41
2023-03-26T21:48:30.358Z,41
2023-03-26T21:53:33.256Z,41
2023-03-26T21:58:35.409Z,41
2023-03-26T22:03:39.844Z,41
2023-03-26T22:08:42.560Z,41
2023-03-26T22:13:46.477Z,41
2023-03-26T22:18:48.639Z,41
2023-03-26T22:23:51.751Z,41
2023-03-26T22:28:53.858Z,42
2023-03-26T22:33:57.759Z,42
2023-03-26T22:38:59.981Z,42
2023-03-26T22:44:13.249Z,42
2023-03-26T22:49:05.323Z,42
2023-03-26T22:54:08.310Z,42
2023-03-26T22:59:10.554Z,42
2023-03-26T23:04:12.736Z,42
2023-03-26T23:09:14.847Z,42
2023-03-26T23:14:16.998Z,42
2023-03-26T23:19:19.923Z,42
2023-03-26T23:24:22.246Z,42
2023-03-26T23:29:29.186Z,42
2023-03-26T23:34:32.287Z,42
2023-03-26T23:39:34.524Z,42
2023-03-26T23:44:36.639Z,42
